Time;durP1;ratioP1;P1;durP2;ratioP2;P2;SDS_P1;SDS_P2;PMS_P1;PMS_P2;Temp;Humidity;BMP_temperature;BMP_pressure;BME280_temperature;BME280_humidity;BME280_pressure;Samples;Min_cycle;Max_cycle;Signal;HPM_P1;HPM_P2
2023/06/02 00:01:33;;;;;;;9.45;5.45;;;24.60;65.00;;;;;;5026382;28;20026;-54
2023/06/02 00:03:59;;;;;;;7.00;4.78;;;24.60;65.10;;;;;;5024984;28;20084;-55
2023/06/02 00:06:26;;;;;;;12.20;5.35;;;24.50;65.10;;;;;;5025067;28;20038;-55
2023/06/02 00:08:52;;;;;;;8.77;4.75;;;24.50;65.10;;;;;;5026334;28;20034;-55
2023/06/02 00:11:18;;;;;;;11.02;4.90;;;24.50;65.20;;;;;;5026246;28;20045;-55
2023/06/02 00:13:44;;;;;;;7.47;4.88;;;24.40;65.20;;;;;;5024725;28;20036;-54
2023/06/02 00:16:10;;;;;;;13.00;4.70;;;24.40;65.30;;;;;;5026160;28;20030;-55
2023/06/02 00:18:37;;;;;;;13.20;4.65;;;24.40;65.40;;;;;;5026279;28;20466;-55
2023/06/02 00:21:06;;;;;;;8.10;4.40;;;24.40;65.40;;;;;;5026529;28;20022;-55
2023/06/02 00:23:32;;;;;;;7.40;4.70;;;24.30;65.40;;;;;;5024534;28;20018;-55
2023/06/02 00:25:58;;;;;;;11.52;4.30;;;24.30;65.50;;;;;;5008463;28;20056;-55
2023/06/02 00:28:24;;;;;;;7.15;3.88;;;24.30;65.70;;;;;;5026109;28;20029;-54
2023/06/02 00:30:50;;;;;;;7.15;4.63;;;24.30;65.70;;;;;;5024768;28;20057;-55
2023/06/02 00:33:15;;;;;;;12.10;4.13;;;24.20;65.70;;;;;;5008161;28;20030;-55
2023/06/02 00:35:41;;;;;;;10.52;4.65;;;24.20;65.80;;;;;;5026067;28;20046;-55
2023/06/02 00:38:06;;;;;;;8.02;4.82;;;24.20;65.80;;;;;;5025345;28;20115;-55
2023/06/02 00:40:32;;;;;;;10.00;4.57;;;24.20;65.80;;;;;;5024873;28;20037;-55
2023/06/02 00:42:59;;;;;;;8.50;4.68;;;24.10;65.90;;;;;;5024183;28;20059;-54
2023/06/02 00:45:25;;;;;;;7.13;4.70;;;24.10;65.80;;;;;;5025893;28;20030;-54
2023/06/02 00:47:51;;;;;;;8.10;4.32;;;24.10;65.90;;;;;;5024754;28;20033;-54
2023/06/02 00:50:17;;;;;;;9.88;4.30;;;24.10;65.90;;;;;;5024284;28;20026;-55
2023/06/02 00:52:42;;;;;;;7.75;4.60;;;24.10;65.90;;;;;;5024471;28;20038;-55
2023/06/02 00:55:08;;;;;;;6.70;4.55;;;24.10;66.70;;;;;;5024590;28;20034;-54
2023/06/02 00:57:38;;;;;;;6.97;3.95;;;24.00;66.00;;;;;;5023030;28;20046;-54
2023/06/02 01:00:05;;;;;;;8.85;4.18;;;24.00;66.10;;;;;;5024965;28;20074;-53
2023/06/02 01:02:31;;;;;;;7.65;4.15;;;24.00;66.10;;;;;;5028087;28;20049;-54
2023/06/02 01:04:57;;;;;;;9.20;4.18;;;24.00;66.20;;;;;;5008387;28;20030;-54
2023/06/02 01:07:24;;;;;;;5.88;4.40;;;24.00;66.20;;;;;;5023988;28;20033;-55
2023/06/02 01:09:51;;;;;;;5.20;3.70;;;23.90;66.20;;;;;;5008829;28;20179;-54
2023/06/02 01:12:17;;;;;;;4.68;3.90;;;23.90;66.30;;;;;;5024928;28;20081;-54
2023/06/02 01:14:42;;;;;;;10.63;4.18;;;23.90;66.40;;;;;;5025131;28;20041;-55
2023/06/02 01:17:09;;;;;;;6.80;4.05;;;23.80;66.40;;;;;;5024109;28;20034;-55
2023/06/02 01:19:38;;;;;;;6.13;4.07;;;23.80;66.60;;;;;;5023936;28;20022;-55
2023/06/02 01:22:03;;;;;;;4.78;4.20;;;23.80;66.60;;;;;;5023887;28;20026;-55
2023/06/02 01:24:39;;;;;;;5.65;3.80;;;23.70;66.60;;;;;;5023586;28;20036;-55
2023/06/02 01:27:06;;;;;;;;;;;23.80;67.50;;;;;;5024043;28;20040;-55
2023/06/02 01:29:35;;;;;;;7.07;4.15;;;23.70;66.90;;;;;;5025089;28;19909;-55
2023/06/02 01:32:04;;;;;;;4.82;3.67;;;23.70;66.90;;;;;;5023766;28;20446;-55
2023/06/02 01:34:38;;;;;;;7.55;3.80;;;23.70;67.10;;;;;;5023404;28;20065;-55
2023/06/02 01:37:03;;;;;;;4.97;3.53;;;23.60;67.00;;;;;;5023781;28;20072;-55
2023/06/02 01:39:29;;;;;;;10.70;3.80;;;23.60;67.10;;;;;;5023714;28;20026;-55
2023/06/02 01:41:55;;;;;;;8.10;3.70;;;23.60;67.20;;;;;;5026937;28;20033;-55
2023/06/02 01:44:20;;;;;;;6.47;3.90;;;23.50;67.20;;;;;;5023252;28;20112;-54
2023/06/02 01:46:46;;;;;;;8.43;4.25;;;23.50;68.00;;;;;;5023460;28;20041;-54
2023/06/02 01:49:15;;;;;;;8.05;3.92;;;23.50;67.30;;;;;;5023505;28;20041;-54
2023/06/02 01:51:41;;;;;;;6.70;3.65;;;23.50;67.40;;;;;;5039523;28;20038;-55
2023/06/02 01:54:07;;;;;;;5.15;3.80;;;23.50;67.50;;;;;;5039744;28;20049;-55
2023/06/02 01:56:32;;;;;;;5.80;3.72;;;23.40;67.50;;;;;;5041053;28;20477;-55
2023/06/02 01:58:58;;;;;;;5.00;3.35;;;23.50;67.60;;;;;;5043895;28;20026;-54
2023/06/02 02:01:24;;;;;;;4.55;3.47;;;23.40;67.50;;;;;;5028516;28;20439;-55
2023/06/02 02:03:50;;;;;;;11.25;3.60;;;23.40;67.60;;;;;;5028770;28;20037;-55
2023/06/02 02:06:16;;;;;;;6.15;3.67;;;23.40;67.60;;;;;;5043863;28;20030;-55
2023/06/02 02:08:41;;;;;;;4.75;3.75;;;23.40;67.70;;;;;;5043734;28;20037;-55
2023/06/02 02:11:07;;;;;;;8.63;4.20;;;23.30;67.70;;;;;;5028595;28;20411;-54
2023/06/02 02:13:32;;;;;;;4.65;4.13;;;23.40;67.80;;;;;;5052853;28;20121;-54
2023/06/02 02:15:58;;;;;;;8.98;4.95;;;23.30;67.80;;;;;;5029842;28;20038;-54
2023/06/02 02:18:24;;;;;;;8.23;5.45;;;23.30;68.00;;;;;;5027185;28;20064;-55
2023/06/02 02:20:50;;;;;;;9.63;4.45;;;23.30;68.10;;;;;;5027079;28;20045;-54
2023/06/02 02:23:15;;;;;;;6.07;5.30;;;23.20;68.10;;;;;;5026986;28;20026;-54
2023/06/02 02:25:41;;;;;;;7.90;5.15;;;23.20;68.30;;;;;;5026961;28;20026;-54
2023/06/02 02:28:06;;;;;;;9.68;5.03;;;23.20;68.40;;;;;;5026866;28;20029;-54
2023/06/02 02:30:32;;;;;;;5.57;4.93;;;23.10;68.40;;;;;;5028218;28;20117;-54
2023/06/02 02:32:57;;;;;;;8.02;5.80;;;23.10;68.50;;;;;;5027807;28;20030;-54
2023/06/02 02:35:23;;;;;;;10.90;4.93;;;23.10;68.60;;;;;;5043104;28;20037;-55
2023/06/02 02:37:48;;;;;;;5.90;4.80;;;23.10;68.60;;;;;;5028008;28;20102;-54
2023/06/02 02:40:15;;;;;;;9.48;4.93;;;23.00;68.70;;;;;;5028086;28;20022;-55
2023/06/02 02:42:41;;;;;;;5.53;4.50;;;23.00;68.80;;;;;;5026699;28;20026;-54
2023/06/02 02:45:08;;;;;;;9.93;4.82;;;23.00;68.90;;;;;;5027883;28;20034;-55
2023/06/02 02:47:33;;;;;;;11.05;5.10;;;23.00;69.00;;;;;;5026735;28;20041;-55
2023/06/02 02:49:59;;;;;;;4.75;4.25;;;22.80;69.00;;;;;;5028050;28;20105;-55
2023/06/02 02:52:24;;;;;;;6.13;4.30;;;22.90;69.20;;;;;;5027922;28;20056;-55
2023/06/02 02:54:50;;;;;;;5.68;3.95;;;23.00;69.30;;;;;;5026345;28;20053;-55
2023/06/02 02:57:16;;;;;;;6.18;4.60;;;22.90;69.40;;;;;;5027615;28;20056;-54
2023/06/02 02:59:41;;;;;;;4.63;4.20;;;22.90;69.40;;;;;;5026313;28;20036;-55
2023/06/02 03:02:07;;;;;;;4.80;4.40;;;22.90;69.50;;;;;;5027764;28;20116;-54
2023/06/02 03:04:34;;;;;;;6.32;5.35;;;22.80;69.50;;;;;;5027599;28;20081;-54
2023/06/02 03:07:01;;;;;;;5.63;4.53;;;22.80;69.60;;;;;;5027390;28;20042;-55
2023/06/02 03:09:27;;;;;;;9.48;5.32;;;22.80;69.60;;;;;;5026089;28;20026;-55
2023/06/02 03:11:52;;;;;;;6.68;4.53;;;22.80;69.70;;;;;;5042410;28;20030;-55
2023/06/02 03:14:18;;;;;;;7.75;5.05;;;22.80;69.90;;;;;;5025749;28;20089;-54
2023/06/02 03:16:44;;;;;;;8.00;4.60;;;22.70;69.80;;;;;;5025997;28;20030;-54
2023/06/02 03:19:12;;;;;;;7.13;4.50;;;22.70;69.80;;;;;;5027318;28;20042;-54
2023/06/02 03:21:43;;;;;;;7.25;4.75;;;22.70;70.60;;;;;;5026082;28;20046;-54
2023/06/02 03:24:12;;;;;;;5.43;4.65;;;22.60;69.90;;;;;;5027342;28;20032;-54
2023/06/02 03:26:41;;;;;;;8.30;5.13;;;22.60;70.20;;;;;;5025757;28;20093;-55
2023/06/02 03:29:08;;;;;;;8.35;4.95;;;22.60;70.40;;;;;;5025790;28;20041;-55
2023/06/02 03:31:33;;;;;;;33.92;8.82;;;22.60;70.40;;;;;;5025758;28;20528;-54
2023/06/02 03:33:59;;;;;;;34.40;8.40;;;22.60;70.40;;;;;;5025508;28;20030;-54
2023/06/02 03:36:25;;;;;;;34.20;7.38;;;22.60;70.40;;;;;;5025749;28;20030;-54
2023/06/02 03:38:50;;;;;;;20.58;7.05;;;22.60;70.40;;;;;;5041997;28;20028;-54
2023/06/02 03:41:16;;;;;;;23.70;6.60;;;22.60;70.50;;;;;;5042163;28;20458;-54
2023/06/02 03:43:42;;;;;;;21.92;7.15;;;22.50;70.50;;;;;;5025341;28;20355;-54
2023/06/02 03:46:07;;;;;;;36.50;7.72;;;22.50;70.70;;;;;;5026714;28;20049;-54
2023/06/02 03:48:33;;;;;;;30.95;7.30;;;22.50;70.70;;;;;;5025369;28;20026;-54
2023/06/02 03:50:58;;;;;;;18.40;7.53;;;22.50;70.80;;;;;;5025434;28;20022;-54
2023/06/02 03:53:24;;;;;;;25.83;7.18;;;22.40;70.90;;;;;;5025355;28;20025;-54
2023/06/02 03:55:50;;;;;;;27.00;7.65;;;22.50;71.00;;;;;;5025299;28;20038;-54
2023/06/02 03:58:15;;;;;;;33.95;7.57;;;22.40;71.10;;;;;;5041460;28;20041;-54
2023/06/02 04:00:41;;;;;;;27.17;6.93;;;22.40;71.00;;;;;;5025203;28;20026;-54
2023/06/02 04:03:09;;;;;;;44.03;7.68;;;22.40;71.10;;;;;;5025210;28;20017;-55
2023/06/02 04:05:35;;;;;;;20.05;6.93;;;22.40;71.10;;;;;;5025049;28;20018;-55
2023/06/02 04:08:00;;;;;;;26.83;7.50;;;22.30;71.20;;;;;;5025065;28;20040;-54
2023/06/02 04:10:28;;;;;;;23.67;6.97;;;22.30;71.10;;;;;;5026252;28;20316;-54
2023/06/02 04:12:53;;;;;;;27.92;6.50;;;22.30;71.10;;;;;;5041148;28;20133;-54
2023/06/02 04:15:19;;;;;;;26.35;7.38;;;22.30;71.30;;;;;;5041648;28;20190;-55
2023/06/02 04:17:44;;;;;;;23.40;6.03;;;22.30;71.40;;;;;;5025191;28;20030;-54
2023/06/02 04:20:12;;;;;;;18.67;6.15;;;22.20;71.50;;;;;;5024202;28;20478;-54
2023/06/02 04:22:37;;;;;;;21.75;6.40;;;22.20;71.50;;;;;;5026030;28;20526;-54
2023/06/02 04:25:03;;;;;;;22.85;6.65;;;22.20;71.50;;;;;;5024621;28;20041;-54
2023/06/02 04:27:29;;;;;;;23.05;6.25;;;22.20;71.50;;;;;;5024883;28;20038;-54
2023/06/02 04:29:54;;;;;;;23.90;6.32;;;22.20;71.80;;;;;;5026047;28;20060;-54
2023/06/02 04:32:20;;;;;;;14.65;6.00;;;22.20;71.90;;;;;;5024580;28;20064;-53
2023/06/02 04:34:46;;;;;;;19.42;5.88;;;22.10;71.90;;;;;;5025876;28;20441;-54
2023/06/02 04:37:12;;;;;;;19.23;6.18;;;22.10;72.00;;;;;;5025699;28;20030;-55
2023/06/02 04:39:37;;;;;;;20.38;5.68;;;22.10;72.10;;;;;;5024274;28;20022;-55
2023/06/02 04:42:03;;;;;;;18.02;4.97;;;22.10;71.90;;;;;;5025698;28;20454;-55
2023/06/02 04:44:29;;;;;;;20.85;6.07;;;22.10;72.00;;;;;;5026004;28;20439;-55
2023/06/02 04:46:55;;;;;;;22.73;6.18;;;22.10;72.00;;;;;;5025743;28;20037;-54
2023/06/02 04:49:21;;;;;;;13.10;5.55;;;22.10;72.10;;;;;;5025454;28;20034;-54
2023/06/02 04:51:46;;;;;;;20.55;5.90;;;22.10;72.10;;;;;;5024230;28;20037;-55
2023/06/02 04:54:14;;;;;;;17.40;6.45;;;22.10;72.20;;;;;;5024223;28;20048;-54
2023/06/02 04:56:40;;;;;;;20.17;6.18;;;22.00;72.20;;;;;;5024179;28;20042;-54
2023/06/02 04:59:05;;;;;;;23.75;6.28;;;22.00;72.30;;;;;;5024205;28;20423;-55
2023/06/02 05:01:31;;;;;;;11.50;5.10;;;22.00;72.30;;;;;;5024084;28;20025;-54
2023/06/02 05:03:56;;;;;;;16.02;5.53;;;22.00;72.40;;;;;;5025277;28;20427;-54
2023/06/02 05:06:22;;;;;;;18.23;5.32;;;21.90;72.30;;;;;;5023804;28;20052;-54
2023/06/02 05:08:47;;;;;;;18.00;5.75;;;21.90;72.40;;;;;;5025279;28;20034;-55
2023/06/02 05:11:13;;;;;;;16.10;5.60;;;21.90;72.50;;;;;;5025242;28;20041;-54
2023/06/02 05:13:38;;;;;;;13.60;6.00;;;21.90;72.50;;;;;;5025065;28;20030;-54
2023/06/02 05:16:04;;;;;;;14.02;5.35;;;21.90;72.50;;;;;;5039971;28;20040;-55
2023/06/02 05:18:30;;;;;;;13.93;5.55;;;21.90;72.60;;;;;;5023630;28;20057;-55
2023/06/02 05:20:55;;;;;;;21.45;5.97;;;21.90;72.60;;;;;;5023897;28;20073;-54
2023/06/02 05:23:21;;;;;;;14.15;5.53;;;21.90;72.40;;;;;;5023613;28;20060;-54
2023/06/02 05:25:48;;;;;;;18.67;5.47;;;21.90;72.30;;;;;;5024751;28;20132;-54
2023/06/02 05:28:13;;;;;;;14.85;5.40;;;21.90;72.10;;;;;;5025014;28;20036;-54
2023/06/02 05:30:39;;;;;;;10.40;4.70;;;21.90;72.10;;;;;;5024509;28;20090;-54
2023/06/02 05:33:05;;;;;;;16.95;5.80;;;21.90;72.00;;;;;;5023464;28;20026;-54
2023/06/02 05:35:31;;;;;;;15.95;5.47;;;21.80;72.00;;;;;;5023824;28;20033;-54
2023/06/02 05:37:56;;;;;;;13.32;5.40;;;21.80;72.00;;;;;;5024811;28;20109;-54
2023/06/02 05:40:22;;;;;;;11.25;4.90;;;21.80;71.90;;;;;;5024843;28;20029;-54
2023/06/02 05:42:47;;;;;;;10.43;5.40;;;21.80;71.90;;;;;;5023584;28;20025;-55
2023/06/02 05:45:13;;;;;;;9.30;4.68;;;21.80;71.80;;;;;;5024667;28;20030;-54
2023/06/02 05:47:38;;;;;;;11.70;4.28;;;21.80;71.70;;;;;;5023502;28;20033;-54
2023/06/02 05:50:04;;;;;;;11.35;5.13;;;21.70;71.50;;;;;;5023364;28;20119;-55
2023/06/02 05:52:30;;;;;;;8.38;5.13;;;21.70;72.00;;;;;;5023537;28;20030;-54
2023/06/02 05:54:56;;;;;;;8.63;4.40;;;21.70;71.20;;;;;;5023322;28;20358;-54
2023/06/02 05:57:21;;;;;;;8.18;4.20;;;21.60;70.90;;;;;;5023364;28;20053;-54
2023/06/02 05:59:47;;;;;;;7.82;4.53;;;21.60;70.70;;;;;;5026592;28;20022;-55
2023/06/02 06:02:12;;;;;;;7.97;4.30;;;21.60;70.50;;;;;;5038682;28;20045;-54
2023/06/02 06:04:38;;;;;;;7.25;4.05;;;21.50;70.50;;;;;;5043083;28;20454;-54
2023/06/02 06:07:04;;;;;;;9.10;4.05;;;21.50;70.60;;;;;;5064317;28;20029;-54
2023/06/02 06:09:29;;;;;;;6.90;4.05;;;21.40;70.50;;;;;;5062419;28;20040;-55
2023/06/02 06:11:55;;;;;;;9.30;3.80;;;21.40;70.20;;;;;;5029685;28;20045;-54
2023/06/02 06:14:20;;;;;;;6.55;3.40;;;21.30;70.10;;;;;;5019749;28;20124;-55
2023/06/02 06:16:46;;;;;;;5.25;3.28;;;21.30;70.30;;;;;;5036989;28;20026;-54
2023/06/02 06:19:12;;;;;;;7.13;3.72;;;21.30;69.90;;;;;;5028505;28;20509;-54
2023/06/02 06:21:38;;;;;;;7.00;3.75;;;21.30;69.70;;;;;;5025347;28;20022;-54
2023/06/02 06:24:06;;;;;;;9.77;3.72;;;21.20;69.80;;;;;;5034423;28;20071;-55
2023/06/02 06:26:32;;;;;;;7.53;3.45;;;21.20;69.50;;;;;;5031165;28;20041;-54
2023/06/02 06:28:58;;;;;;;7.07;3.70;;;21.20;69.40;;;;;;5032247;28;20025;-54
2023/06/02 06:31:24;;;;;;;4.63;3.25;;;21.20;69.50;;;;;;5034451;28;20103;-55
2023/06/02 06:33:49;;;;;;;9.35;3.65;;;21.10;69.30;;;;;;5027583;28;20030;-55
2023/06/02 06:36:15;;;;;;;6.80;3.83;;;21.10;69.30;;;;;;5028157;28;20038;-54
2023/06/02 06:38:41;;;;;;;4.97;3.85;;;21.10;69.30;;;;;;5032903;28;20496;-54
2023/06/02 06:41:06;;;;;;;4.60;3.35;;;21.10;69.30;;;;;;5031554;28;20068;-54
2023/06/02 06:43:32;;;;;;;5.82;3.45;;;21.10;69.30;;;;;;5026930;28;20033;-54
2023/06/02 06:45:59;;;;;;;11.77;4.38;;;21.10;69.30;;;;;;5027131;28;20029;-55
2023/06/02 06:48:25;;;;;;;12.48;4.07;;;21.10;69.40;;;;;;5031202;28;20067;-55
2023/06/02 06:50:50;;;;;;;9.60;3.75;;;21.10;69.50;;;;;;5032122;28;20029;-54
2023/06/02 06:53:16;;;;;;;8.68;3.83;;;21.00;69.40;;;;;;5032685;28;20022;-54
2023/06/02 06:55:42;;;;;;;8.27;4.35;;;21.00;69.60;;;;;;5033059;28;20122;-54
2023/06/02 06:58:07;;;;;;;8.40;4.18;;;21.10;69.80;;;;;;5031134;28;20054;-54
2023/06/02 07:00:33;;;;;;;7.85;3.90;;;21.00;70.60;;;;;;5027866;28;20065;-55
2023/06/02 07:02:58;;;;;;;7.88;4.20;;;21.00;69.90;;;;;;5031705;28;20045;-54
2023/06/02 07:05:24;;;;;;;10.27;3.90;;;21.00;70.20;;;;;;5028180;28;20445;-54
2023/06/02 07:07:50;;;;;;;13.23;4.63;;;21.00;70.40;;;;;;5026475;28;20037;-55
2023/06/02 07:10:16;;;;;;;9.70;4.18;;;21.10;70.40;;;;;;5026249;28;20038;-55
2023/06/02 07:12:42;;;;;;;6.47;4.28;;;21.00;70.40;;;;;;5027502;28;20042;-55
2023/06/02 07:15:07;;;;;;;11.20;4.22;;;21.00;70.60;;;;;;5025377;28;20036;-55
2023/06/02 07:17:33;;;;;;;13.02;4.63;;;21.00;70.60;;;;;;5031007;28;20037;-55
2023/06/02 07:19:59;;;;;;;12.88;5.35;;;21.10;71.10;;;;;;5027067;28;20075;-55
2023/06/02 07:22:24;;;;;;;5.53;4.10;;;21.10;71.30;;;;;;5029653;28;20034;-55
2023/06/02 07:24:51;;;;;;;25.73;5.22;;;21.10;71.20;;;;;;5030097;28;20025;-55
2023/06/02 07:27:16;;;;;;;31.27;5.80;;;21.10;71.30;;;;;;5022702;28;20033;-55
2023/06/02 07:29:42;;;;;;;31.92;6.22;;;21.10;71.30;;;;;;5039222;28;20041;-55
2023/06/02 07:32:08;;;;;;;16.77;5.32;;;21.10;71.60;;;;;;5027948;28;20025;-55
2023/06/02 07:34:34;;;;;;;20.50;5.50;;;21.10;71.80;;;;;;5029734;28;20045;-55
2023/06/02 07:37:02;;;;;;;11.48;4.93;;;21.10;71.60;;;;;;5033763;28;20034;-55
2023/06/02 07:39:28;;;;;;;21.95;5.40;;;21.10;71.40;;;;;;5027235;28;20026;-55
2023/06/02 07:41:53;;;;;;;18.67;5.45;;;21.10;71.40;;;;;;5036052;28;20032;-55
2023/06/02 07:44:19;;;;;;;25.02;5.55;;;21.10;71.40;;;;;;5031970;28;20025;-55
2023/06/02 07:46:45;;;;;;;13.45;5.07;;;21.20;71.50;;;;;;5041137;28;20040;-59
2023/06/02 07:49:11;;;;;;;20.00;5.65;;;21.20;71.30;;;;;;5056168;28;20052;-59
2023/06/02 07:51:38;;;;;;;23.17;4.97;;;21.20;71.30;;;;;;5046436;28;20051;-59
2023/06/02 07:54:03;;;;;;;16.52;5.13;;;21.20;71.30;;;;;;5048872;28;20028;-59
2023/06/02 07:56:29;;;;;;;45.10;6.65;;;21.20;71.30;;;;;;5045244;28;20037;-59
2023/06/02 07:58:54;;;;;;;21.80;5.50;;;21.20;71.20;;;;;;5064950;28;20013;-59
2023/06/02 08:01:20;;;;;;;23.42;5.70;;;21.20;71.30;;;;;;5032245;28;20112;-59
2023/06/02 08:03:45;;;;;;;25.45;5.60;;;21.30;71.30;;;;;;5045069;28;20040;-58
2023/06/02 08:06:11;;;;;;;33.67;6.72;;;21.30;71.70;;;;;;5044259;28;20056;-59
2023/06/02 08:08:36;;;;;;;24.08;5.93;;;21.30;71.80;;;;;;5018299;28;20084;-59
2023/06/02 08:11:02;;;;;;;29.08;6.28;;;21.30;71.90;;;;;;5030059;28;20030;-59
2023/06/02 08:13:27;;;;;;;32.25;6.38;;;21.30;72.00;;;;;;5048270;28;20029;-59
2023/06/02 08:15:53;;;;;;;26.05;7.18;;;21.30;71.80;;;;;;5020478;28;20030;-59
2023/06/02 08:18:19;;;;;;;27.85;5.05;;;21.30;71.70;;;;;;5048546;28;20021;-59
2023/06/02 08:20:45;;;;;;;25.85;6.05;;;21.30;71.60;;;;;;5044751;28;20063;-59
2023/06/02 08:23:10;;;;;;;29.95;6.65;;;21.30;71.60;;;;;;5030179;28;20025;-58
2023/06/02 08:25:38;;;;;;;27.80;6.55;;;21.30;71.70;;;;;;5036527;28;20033;-59
2023/06/02 08:28:06;;;;;;;36.65;6.95;;;21.30;71.60;;;;;;5036326;28;20026;-59
2023/06/02 08:30:33;;;;;;;28.38;6.28;;;21.30;71.60;;;;;;5036110;28;20443;-59
2023/06/02 08:33:02;;;;;;;38.42;6.95;;;21.40;71.60;;;;;;5025949;28;20029;-59
2023/06/02 08:35:29;;;;;;;24.77;6.60;;;21.40;71.60;;;;;;5031630;28;20038;-59
2023/06/02 08:37:55;;;;;;;25.17;5.63;;;21.40;71.50;;;;;;5054625;28;20029;-59
2023/06/02 08:40:21;;;;;;;28.67;6.40;;;21.40;71.90;;;;;;5043614;28;20017;-59
2023/06/02 08:42:46;;;;;;;35.65;6.07;;;21.40;71.70;;;;;;5026299;28;20033;-59
2023/06/02 08:45:12;;;;;;;26.60;6.38;;;21.40;71.70;;;;;;5043371;28;20056;-59
2023/06/02 08:47:38;;;;;;;33.75;6.65;;;21.40;71.70;;;;;;5033591;28;20800;-58
2023/06/02 08:50:03;;;;;;;23.73;6.18;;;21.40;71.70;;;;;;5040991;28;20025;-59
2023/06/02 08:52:29;;;;;;;24.60;6.55;;;21.40;71.60;;;;;;5020848;28;20393;-58
2023/06/02 08:54:55;;;;;;;32.42;6.10;;;21.50;71.70;;;;;;5040291;28;21245;-59
2023/06/02 08:57:21;;;;;;;45.88;7.38;;;21.50;71.60;;;;;;5043293;28;20093;-59
2023/06/02 08:59:47;;;;;;;49.30;7.40;;;21.50;71.90;;;;;;5032573;28;20030;-59
2023/06/02 09:02:13;;;;;;;36.35;7.90;;;21.50;71.80;;;;;;5033098;28;20075;-59
2023/06/02 09:04:39;;;;;;;26.38;6.63;;;21.50;71.80;;;;;;5050716;28;20072;-59
2023/06/02 09:07:15;;;;;;;34.03;7.03;;;21.50;71.70;;;;;;5055422;28;20030;-59
2023/06/02 09:09:48;;;;;;;33.67;7.30;;;21.60;71.80;;;;;;5040887;28;20110;-59
2023/06/02 09:12:15;;;;;;;60.47;8.50;;;21.60;71.50;;;;;;5055660;28;20106;-59
2023/06/02 09:14:41;;;;;;;41.90;8.43;;;21.60;71.50;;;;;;5058561;28;20034;-59
2023/06/02 09:17:27;;;;;;;39.65;8.68;;;21.60;71.60;;;;;;5053386;28;20431;-59
2023/06/02 09:19:58;;;;;;;39.78;7.68;;;21.60;71.60;;;;;;5041647;28;20033;-58
2023/06/02 09:22:23;;;;;;;45.95;8.82;;;21.60;71.50;;;;;;5042976;28;20035;-59
2023/06/02 09:24:50;;;;;;;40.03;8.13;;;21.70;71.70;;;;;;5054809;28;20039;-59
2023/06/02 09:27:16;;;;;;;46.33;8.90;;;21.70;71.50;;;;;;5049168;28;20041;-59
2023/06/02 09:29:42;;;;;;;38.35;8.77;;;21.70;71.50;;;;;;5043173;28;20095;-58
2023/06/02 09:32:15;;;;;;;44.90;9.05;;;21.70;71.50;;;;;;5056008;28;20033;-58
2023/06/02 09:34:41;;;;;;;60.22;10.25;;;21.80;71.40;;;;;;5047107;28;20029;-59
2023/06/02 09:37:10;;;;;;;42.40;8.50;;;21.80;71.50;;;;;;5032136;28;20037;-59
2023/06/02 09:39:43;;;;;;;66.68;9.95;;;21.80;71.30;;;;;;5047208;28;20036;-59
2023/06/02 09:42:09;;;;;;;74.18;11.95;;;21.80;71.50;;;;;;5052971;28;20034;-58
2023/06/02 09:44:35;;;;;;;61.17;10.00;;;21.80;71.40;;;;;;5032901;28;20021;-58
2023/06/02 09:47:02;;;;;;;50.38;9.82;;;21.90;71.40;;;;;;5044463;28;20033;-59
2023/06/02 09:49:39;;;;;;;48.15;9.20;;;21.90;71.20;;;;;;5032931;28;20044;-59
2023/06/02 09:52:11;;;;;;;46.25;8.30;;;21.90;71.20;;;;;;5026904;28;20068;-59
2023/06/02 09:54:36;;;;;;;63.72;10.50;;;21.90;71.20;;;;;;5029067;28;20052;-58
2023/06/02 09:57:02;;;;;;;69.85;10.02;;;22.00;71.10;;;;;;5037711;28;20065;-59
2023/06/02 09:59:28;;;;;;;73.03;11.50;;;22.00;71.40;;;;;;5044539;28;20030;-59
2023/06/02 10:01:53;;;;;;;40.38;8.30;;;22.00;71.20;;;;;;5027742;28;20140;-59
2023/06/02 10:04:19;;;;;;;51.05;10.18;;;22.10;71.30;;;;;;5034904;28;20030;-59
2023/06/02 10:06:51;;;;;;;95.60;13.35;;;22.10;71.40;;;;;;5044954;28;20040;-59
2023/06/02 10:09:33;;;;;;;57.20;12.27;;;22.20;71.70;;;;;;5047271;28;20029;-58
2023/06/02 10:12:21;;;;;;;74.05;11.70;;;22.20;71.60;;;;;;5056939;28;20037;-59
2023/06/02 10:15:09;;;;;;;73.25;10.38;;;22.30;71.60;;;;;;5045972;28;20117;-59
2023/06/02 10:18:00;;;;;;;48.63;9.55;;;22.30;71.30;;;;;;5041314;28;20064;-58
2023/06/02 10:20:39;;;;;;;59.40;11.38;;;22.40;71.10;;;;;;5038193;28;20034;-59
2023/06/02 10:23:18;;;;;;;79.03;12.88;;;22.40;70.90;;;;;;5037568;28;20132;-59
2023/06/02 10:26:14;;;;;;;76.57;12.68;;;22.40;70.70;;;;;;5039092;28;20093;-58
2023/06/02 10:28:40;;;;;;;93.60;14.32;;;22.50;70.60;;;;;;5049320;28;20040;-59
2023/06/02 10:31:10;;;;;;;80.25;12.90;;;22.50;70.60;;;;;;5049824;28;20120;-59
2023/06/02 10:33:46;;;;;;;114.38;16.40;;;22.60;70.50;;;;;;5041375;28;20027;-59
2023/06/02 10:36:13;;;;;;;103.90;15.63;;;22.60;70.50;;;;;;5034837;28;20041;-59
2023/06/02 10:38:39;;;;;;;126.88;15.13;;;22.70;70.40;;;;;;5021113;28;20052;-59
2023/06/02 10:41:05;;;;;;;89.18;14.65;;;22.70;70.50;;;;;;5027658;28;20026;-59
2023/06/02 10:43:32;;;;;;;129.45;18.38;;;22.80;69.90;;;;;;5034773;28;20075;-59
2023/06/02 10:46:23;;;;;;;112.93;16.50;;;22.90;69.80;;;;;;5043025;28;20033;-59
2023/06/02 10:48:48;;;;;;;88.65;14.88;;;23.00;69.60;;;;;;5042840;28;20029;-59
2023/06/02 10:51:15;;;;;;;89.10;13.65;;;23.00;69.00;;;;;;5037549;28;20036;-59
2023/06/02 10:54:02;;;;;;;78.13;14.35;;;23.10;68.30;;;;;;5051092;28;20077;-59
2023/06/02 10:56:40;;;;;;;56.40;10.52;;;23.20;68.10;;;;;;5041671;28;20091;-59
2023/06/02 10:59:06;;;;;;;112.10;13.73;;;23.30;67.70;;;;;;5041012;28;20045;-59
2023/06/02 11:01:51;;;;;;;74.43;12.15;;;23.40;67.80;;;;;;5053048;28;20458;-59
2023/06/02 11:04:26;;;;;;;68.30;11.40;;;23.50;67.80;;;;;;5033146;28;20094;-59
2023/06/02 11:07:18;;;;;;;84.85;10.90;;;23.60;67.70;;;;;;5037448;28;20037;-59
2023/06/02 11:09:44;;;;;;;78.55;10.88;;;23.60;67.60;;;;;;5052399;28;20458;-59
2023/06/02 11:12:10;;;;;;;71.32;11.70;;;23.70;67.50;;;;;;5047421;28;20116;-59
2023/06/02 11:15:04;;;;;;;48.03;8.13;;;23.80;67.30;;;;;;5042046;28;20079;-59
2023/06/02 11:17:33;;;;;;;49.38;8.65;;;23.80;66.70;;;;;;5054217;28;20037;-59
2023/06/02 11:19:58;;;;;;;56.97;10.30;;;24.00;65.80;;;;;;5048221;28;20132;-59
2023/06/02 11:22:25;;;;;;;45.50;8.05;;;24.10;65.80;;;;;;5045975;28;20088;-58
2023/06/02 11:24:51;;;;;;;35.28;6.63;;;24.20;64.90;;;;;;5046052;28;20070;-57
2023/06/02 11:27:17;;;;;;;45.65;7.88;;;24.30;64.30;;;;;;5052374;28;20120;-58
2023/06/02 11:29:44;;;;;;;50.72;7.40;;;24.40;64.00;;;;;;5030700;28;20068;-57
2023/06/02 11:32:18;;;;;;;33.67;7.55;;;24.50;63.80;;;;;;5026329;28;20447;-59
2023/06/02 11:34:44;;;;;;;27.27;7.00;;;24.50;63.30;;;;;;5025831;28;20036;-58
2023/06/02 11:37:14;;;;;;;26.02;6.10;;;24.60;63.00;;;;;;5035573;28;20041;-59
2023/06/02 11:39:52;;;;;;;24.60;6.47;;;24.70;61.90;;;;;;5038570;28;20052;-58
2023/06/02 11:42:18;;;;;;;30.60;6.47;;;24.80;61.70;;;;;;5042094;28;20095;-59
2023/06/02 11:44:48;;;;;;;31.85;7.43;;;24.80;61.40;;;;;;5033804;28;20025;-59
2023/06/02 11:47:17;;;;;;;37.15;6.35;;;24.90;61.60;;;;;;5041573;28;20025;-59
2023/06/02 11:49:43;;;;;;;22.73;5.63;;;24.90;61.40;;;;;;5047160;28;20033;-59
2023/06/02 11:52:09;;;;;;;23.63;5.55;;;25.00;61.20;;;;;;5017019;28;20045;-59
2023/06/02 11:54:51;;;;;;;35.25;6.05;;;25.00;61.50;;;;;;5039545;28;20053;-59
2023/06/02 11:57:32;;;;;;;29.85;6.45;;;25.10;60.30;;;;;;5036011;28;20038;-59
2023/06/02 12:00:19;;;;;;;17.65;5.60;;;25.30;59.40;;;;;;5023242;28;20036;-59
2023/06/02 12:02:52;;;;;;;24.25;5.53;;;25.40;59.10;;;;;;5041028;28;20121;-59
2023/06/02 12:05:31;;;;;;;20.23;5.18;;;25.50;58.80;;;;;;5033517;28;20057;-59
2023/06/02 12:08:10;;;;;;;26.40;5.85;;;25.50;58.10;;;;;;5040911;28;20104;-58
2023/06/02 12:10:35;;;;;;;45.35;6.32;;;25.60;57.90;;;;;;5034851;28;20045;-59
2023/06/02 12:13:01;;;;;;;27.38;5.80;;;25.60;57.40;;;;;;5036366;28;20029;-58
2023/06/02 12:15:33;;;;;;;25.35;4.85;;;25.70;57.10;;;;;;5031565;28;20083;-59
2023/06/02 12:18:03;;;;;;;13.98;4.50;;;25.70;56.70;;;;;;5046195;28;20120;-59
2023/06/02 12:20:41;;;;;;;27.90;5.35;;;25.80;56.20;;;;;;5041976;28;20394;-59
2023/06/02 12:23:09;;;;;;;20.98;5.78;;;25.80;56.20;;;;;;5040314;28;21978;-59
2023/06/02 12:25:35;;;;;;;36.58;6.18;;;25.90;56.60;;;;;;5038711;28;20043;-59
2023/06/02 12:28:13;;;;;;;21.27;5.50;;;26.00;56.30;;;;;;5044421;28;20053;-59
2023/06/02 12:30:39;;;;;;;38.85;6.40;;;26.10;56.10;;;;;;5053282;28;20098;-59
2023/06/02 12:33:05;;;;;;;31.35;5.53;;;26.10;55.90;;;;;;5037446;28;20434;-59
2023/06/02 12:35:31;;;;;;;37.97;7.75;;;26.20;56.10;;;;;;5035235;28;20093;-59
2023/06/02 12:37:56;;;;;;;26.95;5.90;;;26.30;55.00;;;;;;5039696;28;20076;-59
2023/06/02 12:40:22;;;;;;;51.75;7.57;;;26.40;55.10;;;;;;5040957;28;20025;-59